Time,TemperatureF,DewpointF,PressureIn,WindDirection,WindDirectionDegrees,WindSpeedMPH,WindSpeedGustMPH,Humidity,HourlyPrecipIn,Conditions,Clouds,dailyrainin,SoftwareType,DateUTC
2013-02-27 00:00:00,43.2,31.4,29.71,South,189,0.0,0.0,63,0.00,,---,0.00,VWS V14.01,2013-02-27 08:00:00,
2013-02-27 00:05:00,43.2,31.4,29.71,South,189,0.0,0.0,63,0.00,,---,0.00,VWS V14.01,2013-02-27 08:05:00,
2013-02-27 00:10:00,43.2,31.4,29.71,South,189,0.0,0.0,63,0.00,,---,0.00,VWS V14.01,2013-02-27 08:10:00,
2013-02-27 00:15:00,43.2,31.4,29.71,South,189,0.0,0.0,63,0.00,,---,0.00,VWS V14.01,2013-02-27 08:15:00,
2013-02-27 00:20:00,43.2,31.4,29.71,South,189,0.0,0.0,63,0.00,,---,0.00,VWS V14.01,2013-02-27 08:20:00,
2013-02-27 00:25:00,43.2,31.4,29.71,WSW,258,3.1,3.6,63,0.00,,---,0.00,VWS V14.01,2013-02-27 08:25:00,
2013-02-27 00:30:00,43.2,31.4,29.71,SW,230,2.7,2.7,63,0.00,,---,0.00,VWS V14.01,2013-02-27 08:30:00,
2013-02-27 00:35:00,43.2,31.4,29.74,SW,226,0.0,0.0,63,0.00,,---,0.00,VWS V14.01,2013-02-27 08:35:00,
2013-02-27 00:40:00,43.2,31.4,29.74,SW,226,0.0,0.0,63,0.00,,---,0.00,VWS V14.01,2013-02-27 08:40:00,
2013-02-27 00:45:00,43.2,31.4,29.74,SW,226,0.0,0.0,63,0.00,,---,0.00,VWS V14.01,2013-02-27 08:45:00,
2013-02-27 00:50:00,43.2,31.4,29.71,SW,226,0.0,0.0,63,0.00,,---,0.00,VWS V14.01,2013-02-27 08:50:00,
2013-02-27 00:55:00,43.2,31.4,29.71,SW,226,0.0,0.0,63,0.00,,---,0.00,VWS V14.01,2013-02-27 08:55:00,
2013-02-27 01:00:00,43.2,31.4,29.71,SW,226,0.0,0.0,63,0.00,,---,0.00,VWS V14.01,2013-02-27 09:00:00,
2013-02-27 01:04:00,43.2,31.4,29.74,SW,226,0.0,0.0,63,0.00,,---,0.00,VWS V14.01,2013-02-27 09:04:00,
2013-02-27 01:09:00,43.2,31.4,29.74,SW,226,0.0,0.0,63,0.00,,---,0.00,VWS V14.01,2013-02-27 09:09:00,
2013-02-27 01:14:00,43.2,31.4,29.74,SW,226,0.0,0.0,63,0.00,,---,0.00,VWS V14.01,2013-02-27 09:14:00,
2013-02-27 01:19:00,43.2,31.4,29.74,SW,215,0.0,3.1,63,0.04,,---,0.04,VWS V14.01,2013-02-27 09:19:00,
2013-02-27 01:24:00,43.2,31.4,29.74,NW,308,0.0,0.0,63,0.04,,---,0.04,VWS V14.01,2013-02-27 09:24:00,
2013-02-27 01:29:00,43.2,31.4,29.74,NW,308,0.0,0.0,63,0.04,,---,0.04,VWS V14.01,2013-02-27 09:29:00,
2013-02-27 01:34:00,43.2,31.4,29.74,NW,326,0.0,0.0,63,0.04,,---,0.04,VWS V14.01,2013-02-27 09:34:00,
2013-02-27 01:39:00,43.2,31.4,29.74,NW,326,0.0,0.0,63,0.04,,---,0.04,VWS V14.01,2013-02-27 09:39:00,
2013-02-27 01:44:00,43.2,31.4,29.74,NW,326,0.0,0.0,63,0.04,,---,0.04,VWS V14.01,2013-02-27 09:44:00,
2013-02-27 01:49:00,43.2,31.4,29.74,NW,326,0.0,0.0,63,0.04,,---,0.04,VWS V14.01,2013-02-27 09:49:00,
2013-02-27 01:54:00,43.2,31.4,29.74,NW,326,0.0,0.0,63,0.04,,---,0.04,VWS V14.01,2013-02-27 09:54:00,
2013-02-27 01:59:00,43.2,31.4,29.74,NW,326,0.0,0.0,63,0.04,,---,0.04,VWS V14.01,2013-02-27 09:59:00,
2013-02-27 02:04:00,43.2,31.4,29.74,NW,326,0.0,0.0,63,0.04,,---,0.04,VWS V14.01,2013-02-27 10:04:00,
2013-02-27 02:09:00,40.8,38.1,29.74,NW,326,0.0,0.0,90,0.04,,---,0.04,VWS V14.01,2013-02-27 10:09:00,
2013-02-27 02:14:00,40.8,38.1,29.74,NW,326,0.0,0.0,90,0.04,,---,0.04,VWS V14.01,2013-02-27 10:14:00,
2013-02-27 02:19:00,40.8,38.1,29.74,NW,326,0.0,0.0,90,0.00,,---,0.04,VWS V14.01,2013-02-27 10:19:00,
2013-02-27 02:24:00,41.0,38.3,29.74,NW,326,0.0,0.0,90,0.00,,---,0.04,VWS V14.01,2013-02-27 10:24:00,
2013-02-27 02:29:00,41.0,38.3,29.74,NW,326,0.0,0.0,90,0.00,,---,0.04,VWS V14.01,2013-02-27 10:29:00,
2013-02-27 02:34:00,41.0,38.3,29.74,NW,326,0.0,0.0,90,0.00,,---,0.04,VWS V14.01,2013-02-27 10:34:00,
2013-02-27 02:39:00,41.0,38.3,29.74,NW,326,0.0,0.0,90,0.00,,---,0.04,VWS V14.01,2013-02-27 10:39:00,
2013-02-27 02:44:00,41.0,38.3,29.74,WNW,303,2.2,2.7,90,0.00,,---,0.04,VWS V14.01,2013-02-27 10:44:00,
2013-02-27 02:49:00,41.0,38.3,29.74,WNW,298,0.0,0.0,90,0.00,,---,0.04,VWS V14.01,2013-02-27 10:49:00,
2013-02-27 02:54:00,40.6,38.2,29.74,WNW,298,0.0,0.0,91,0.00,,---,0.04,VWS V14.01,2013-02-27 10:54:00,
2013-02-27 02:59:00,40.6,38.2,29.74,WNW,298,0.0,0.0,91,0.00,,---,0.04,VWS V14.01,2013-02-27 10:59:00,
2013-02-27 03:04:00,40.6,38.2,29.74,SSE,162,0.0,2.2,91,0.00,,---,0.04,VWS V14.01,2013-02-27 11:04:00,
2013-02-27 03:09:00,40.6,38.2,29.74,SSW,205,0.0,0.0,91,0.00,,---,0.04,VWS V14.01,2013-02-27 11:09:00,
2013-02-27 03:14:00,40.6,38.2,29.74,South,180,0.0,0.0,91,0.00,,---,0.04,VWS V14.01,2013-02-27 11:14:00,
2013-02-27 03:19:00,40.6,38.2,29.74,SSE,147,0.0,0.0,91,0.00,,---,0.04,VWS V14.01,2013-02-27 11:19:00,
2013-02-27 03:24:00,40.6,38.2,29.74,SSE,147,0.0,0.0,91,0.00,,---,0.04,VWS V14.01,2013-02-27 11:24:00,
2013-02-27 03:29:00,40.6,38.2,29.74,SE,144,0.0,0.0,91,0.00,,---,0.04,VWS V14.01,2013-02-27 11:29:00,
2013-02-27 03:34:00,40.6,38.2,29.74,SW,236,0.0,0.0,91,0.00,,---,0.04,VWS V14.01,2013-02-27 11:34:00,
2013-02-27 03:39:00,40.6,38.2,29.74,West,268,0.0,0.0,91,0.00,,---,0.04,VWS V14.01,2013-02-27 11:39:00,
2013-02-27 03:44:00,40.6,38.2,29.74,WNW,286,0.0,0.0,91,0.00,,---,0.04,VWS V14.01,2013-02-27 11:44:00,
2013-02-27 03:49:00,40.6,38.2,29.74,NE,54,0.0,0.0,91,0.00,,---,0.04,VWS V14.01,2013-02-27 11:49:00,
2013-02-27 03:54:00,40.6,38.2,29.74,South,172,0.0,0.0,91,0.00,,---,0.04,VWS V14.01,2013-02-27 11:54:00,
2013-02-27 03:59:00,40.6,38.2,29.74,South,172,0.0,0.0,91,0.00,,---,0.04,VWS V14.01,2013-02-27 11:59:00,
2013-02-27 04:04:00,40.6,38.2,29.74,NNE,26,2.2,2.7,91,0.00,,---,0.04,VWS V14.01,2013-02-27 12:04:00,
2013-02-27 04:09:00,40.6,38.2,29.74,NNE,26,0.0,0.0,91,0.00,,---,0.04,VWS V14.01,2013-02-27 12:09:00,
2013-02-27 04:14:00,40.6,38.2,29.74,NNE,29,0.0,0.0,91,0.00,,---,0.04,VWS V14.01,2013-02-27 12:14:00,
2013-02-27 04:19:00,40.6,38.2,29.74,NNE,29,0.0,0.0,91,0.00,,---,0.04,VWS V14.01,2013-02-27 12:19:00,
2013-02-27 04:24:00,38.7,37.1,29.74,NNE,29,0.0,0.0,94,0.00,,---,0.04,VWS V14.01,2013-02-27 12:24:00,
2013-02-27 04:29:00,38.7,37.1,29.74,NNE,29,0.0,0.0,94,0.00,,---,0.04,VWS V14.01,2013-02-27 12:29:00,
2013-02-27 04:34:00,38.7,37.1,29.74,NNE,29,0.0,0.0,94,0.00,,---,0.04,VWS V14.01,2013-02-27 12:34:00,
2013-02-27 04:39:00,38.7,37.1,29.74,NNE,29,0.0,0.0,94,0.00,,---,0.04,VWS V14.01,2013-02-27 12:39:00,
2013-02-27 04:44:00,38.7,37.1,29.74,NNE,29,0.0,0.0,94,0.00,,---,0.04,VWS V14.01,2013-02-27 12:44:00,
2013-02-27 04:49:00,38.7,37.1,29.77,NNE,29,0.0,0.0,94,0.00,,---,0.04,VWS V14.01,2013-02-27 12:49:00,
2013-02-27 04:54:00,38.7,37.1,29.77,NNE,29,0.0,0.0,94,0.00,,---,0.04,VWS V14.01,2013-02-27 12:54:00,
2013-02-27 04:59:00,38.7,37.1,29.77,NNE,29,0.0,0.0,94,0.00,,---,0.04,VWS V14.01,2013-02-27 12:59:00,
2013-02-27 05:04:00,38.7,37.1,29.77,NNE,29,0.0,0.0,94,0.00,,---,0.04,VWS V14.01,2013-02-27 13:04:00,
2013-02-27 05:09:00,38.7,37.1,29.77,NNE,29,0.0,0.0,94,0.00,,---,0.04,VWS V14.01,2013-02-27 13:09:00,
2013-02-27 05:14:00,38.7,37.1,29.77,NNE,29,0.0,0.0,94,0.00,,---,0.04,VWS V14.01,2013-02-27 13:14:00,
2013-02-27 05:19:00,38.7,37.1,29.77,NNE,29,0.0,0.0,94,0.00,,---,0.04,VWS V14.01,2013-02-27 13:19:00,
2013-02-27 05:24:00,38.7,37.1,29.77,NNE,29,0.0,0.0,94,0.00,,---,0.04,VWS V14.01,2013-02-27 13:24:00,
2013-02-27 05:29:00,38.7,37.1,29.77,NNE,29,0.0,0.0,94,0.00,,---,0.04,VWS V14.01,2013-02-27 13:29:00,
2013-02-27 05:34:00,38.7,37.1,29.77,NNE,29,0.0,0.0,94,0.00,,---,0.04,VWS V14.01,2013-02-27 13:34:00,
2013-02-27 05:39:00,38.7,37.1,29.77,NNE,29,0.0,0.0,94,0.00,,---,0.04,VWS V14.01,2013-02-27 13:39:00,
2013-02-27 05:44:00,38.7,37.1,29.77,NNE,29,0.0,0.0,94,0.00,,---,0.04,VWS V14.01,2013-02-27 13:44:00,
2013-02-27 05:49:00,38.7,37.1,29.80,NNE,29,0.0,0.0,94,0.00,,---,0.04,VWS V14.01,2013-02-27 13:49:00,
2013-02-27 05:54:00,38.7,37.1,29.80,NNE,29,0.0,0.0,94,0.00,,---,0.04,VWS V14.01,2013-02-27 13:54:00,
2013-02-27 05:59:00,38.7,37.1,29.80,NNE,29,0.0,0.0,94,0.00,,---,0.04,VWS V14.01,2013-02-27 13:59:00,
2013-02-27 06:04:00,38.7,37.1,29.80,NNE,29,0.0,0.0,94,0.00,,---,0.04,VWS V14.01,2013-02-27 14:04:00,
2013-02-27 06:09:00,38.7,37.1,29.80,NNE,29,0.0,0.0,94,0.00,,---,0.04,VWS V14.01,2013-02-27 14:09:00,
2013-02-27 06:14:00,38.7,37.1,29.80,NNE,29,0.0,0.0,94,0.00,,---,0.04,VWS V14.01,2013-02-27 14:14:00,
2013-02-27 06:19:00,38.7,37.1,29.80,NNE,29,0.0,0.0,94,0.00,,---,0.04,VWS V14.01,2013-02-27 14:19:00,
2013-02-27 06:24:00,38.7,37.1,29.80,NNE,29,0.0,0.0,94,0.00,,---,0.04,VWS V14.01,2013-02-27 14:24:00,
2013-02-27 06:29:00,38.7,37.1,29.80,NNE,29,0.0,0.0,94,0.00,,---,0.04,VWS V14.01,2013-02-27 14:29:00,
2013-02-27 06:34:00,38.7,37.1,29.80,NNE,29,0.0,0.0,94,0.00,,---,0.04,VWS V14.01,2013-02-27 14:34:00,
2013-02-27 06:39:00,38.7,37.1,29.80,NNE,29,0.0,0.0,94,0.00,,---,0.04,VWS V14.01,2013-02-27 14:39:00,
2013-02-27 06:44:00,38.7,37.1,29.80,NNE,29,0.0,0.0,94,0.00,,---,0.04,VWS V14.01,2013-02-27 14:44:00,
2013-02-27 06:49:00,38.7,37.1,29.80,NNE,29,0.0,0.0,94,0.00,,---,0.04,VWS V14.01,2013-02-27 14:49:00,
2013-02-27 06:54:00,38.7,37.1,29.80,NNE,29,0.0,0.0,94,0.00,,---,0.04,VWS V14.01,2013-02-27 14:54:00,
2013-02-27 06:59:00,38.7,37.1,29.80,NNE,29,0.0,0.0,94,0.00,,---,0.04,VWS V14.01,2013-02-27 14:59:00,
2013-02-27 07:04:00,38.7,37.1,29.80,NNE,29,0.0,0.0,94,0.00,,---,0.04,VWS V14.01,2013-02-27 15:04:00,
2013-02-27 07:09:00,38.7,37.1,29.80,NNE,29,0.0,0.0,94,0.00,,---,0.04,VWS V14.01,2013-02-27 15:09:00,
2013-02-27 07:14:00,38.7,37.1,29.80,NNE,29,0.0,0.0,94,0.00,,---,0.04,VWS V14.01,2013-02-27 15:14:00,
2013-02-27 07:19:00,38.7,37.1,29.80,NNE,29,0.0,0.0,94,0.00,,---,0.04,VWS V14.01,2013-02-27 15:19:00,
2013-02-27 07:24:00,38.7,37.1,29.80,NNE,29,0.0,0.0,94,0.00,,---,0.04,VWS V14.01,2013-02-27 15:24:00,
2013-02-27 07:29:00,38.7,37.1,29.80,NNE,29,0.0,0.0,94,0.00,,---,0.04,VWS V14.01,2013-02-27 15:29:00,
2013-02-27 07:34:00,38.7,37.1,29.80,NNE,29,0.0,0.0,94,0.00,,---,0.04,VWS V14.01,2013-02-27 15:34:00,
2013-02-27 07:39:00,38.7,37.1,29.80,NNE,29,0.0,0.0,94,0.00,,---,0.04,VWS V14.01,2013-02-27 15:39:00,
2013-02-27 07:44:00,38.7,37.1,29.80,NNE,29,0.0,0.0,94,0.00,,---,0.04,VWS V14.01,2013-02-27 15:44:00,
2013-02-27 07:49:00,38.7,37.1,29.80,NNE,29,0.0,0.0,94,0.00,,---,0.04,VWS V14.01,2013-02-27 15:49:00,
2013-02-27 07:54:00,38.7,37.1,29.80,NNE,29,0.0,0.0,94,0.00,,---,0.04,VWS V14.01,2013-02-27 15:54:00,
2013-02-27 07:59:00,38.7,37.1,29.80,NNE,29,0.0,0.0,94,0.00,,---,0.04,VWS V14.01,2013-02-27 15:59:00,
2013-02-27 08:04:00,38.7,37.1,29.80,NNE,29,0.0,0.0,94,0.00,,---,0.04,VWS V14.01,2013-02-27 16:04:00,
2013-02-27 08:09:00,38.7,37.1,29.80,NNE,29,0.0,0.0,94,0.00,,---,0.04,VWS V14.01,2013-02-27 16:09:00,
2013-02-27 08:14:00,38.7,37.1,29.80,NNE,29,0.0,0.0,94,0.00,,---,0.04,VWS V14.01,2013-02-27 16:14:00,
2013-02-27 08:19:00,39.2,37.9,29.80,NNE,29,0.0,0.0,95,0.00,,---,0.04,VWS V14.01,2013-02-27 16:19:00,
2013-02-27 08:24:00,39.2,37.9,29.80,NNE,29,0.0,0.0,95,0.00,,---,0.04,VWS V14.01,2013-02-27 16:24:00,
2013-02-27 08:29:00,39.2,37.9,29.80,NNE,29,0.0,0.0,95,0.00,,---,0.04,VWS V14.01,2013-02-27 16:29:00,
2013-02-27 08:34:00,39.2,37.9,29.80,NNE,29,0.0,0.0,95,0.00,,---,0.04,VWS V14.01,2013-02-27 16:34:00,
2013-02-27 08:39:00,39.2,37.9,29.80,ENE,71,0.0,0.0,95,0.00,,---,0.04,VWS V14.01,2013-02-27 16:39:00,
2013-02-27 08:44:00,39.2,37.9,29.80,ENE,76,0.0,0.0,95,0.00,,---,0.04,VWS V14.01,2013-02-27 16:44:00,
2013-02-27 08:49:00,39.2,37.9,29.80,ENE,77,0.0,0.0,95,0.00,,---,0.04,VWS V14.01,2013-02-27 16:49:00,
2013-02-27 08:54:00,39.2,37.9,29.80,ENE,77,0.0,0.0,95,0.00,,---,0.04,VWS V14.01,2013-02-27 16:54:00,
2013-02-27 08:59:00,39.2,37.9,29.80,East,97,0.0,0.0,95,0.00,,---,0.04,VWS V14.01,2013-02-27 16:59:00,
2013-02-27 09:04:00,39.2,37.9,29.80,SSE,151,0.0,0.0,95,0.00,,---,0.04,VWS V14.01,2013-02-27 17:04:00,
2013-02-27 09:09:00,39.2,37.9,29.80,SE,127,2.7,2.7,95,0.00,,---,0.04,VWS V14.01,2013-02-27 17:09:00,
2013-02-27 09:14:00,39.2,37.9,29.80,SE,125,0.0,0.0,95,0.00,,---,0.04,VWS V14.01,2013-02-27 17:14:00,
2013-02-27 09:19:00,39.2,37.9,29.77,East,82,0.0,2.7,95,0.00,,---,0.04,VWS V14.01,2013-02-27 17:19:00,
2013-02-27 09:24:00,42.8,40.9,29.77,East,90,4.0,4.0,93,0.00,,---,0.04,VWS V14.01,2013-02-27 17:24:00,
2013-02-27 09:29:00,42.8,40.9,29.77,SE,127,0.0,2.7,93,0.00,,---,0.04,VWS V14.01,2013-02-27 17:29:00,
2013-02-27 09:34:00,43.7,41.5,29.77,South,181,2.7,2.7,92,0.00,,---,0.04,VWS V14.01,2013-02-27 17:34:00,
2013-02-27 09:39:00,43.7,41.5,29.77,ENE,73,0.0,0.0,92,0.00,,---,0.04,VWS V14.01,2013-02-27 17:39:00,
2013-02-27 09:44:00,43.7,41.5,29.77,SE,140,2.7,3.1,92,0.00,,---,0.04,VWS V14.01,2013-02-27 17:44:00,
2013-02-27 09:49:00,43.7,41.5,29.77,SSE,162,2.7,3.1,92,0.00,,---,0.04,VWS V14.01,2013-02-27 17:49:00,
2013-02-27 09:54:00,45.9,43.1,29.77,South,186,4.0,4.0,90,0.00,,---,0.04,VWS V14.01,2013-02-27 17:54:00,
2013-02-27 09:59:00,45.9,43.1,29.77,SW,232,2.7,2.7,90,0.00,,---,0.04,VWS V14.01,2013-02-27 17:59:00,
2013-02-27 10:04:00,45.9,43.1,29.77,WSW,238,0.0,0.0,90,0.00,,---,0.04,VWS V14.01,2013-02-27 18:04:00,
2013-02-27 10:09:00,45.9,43.1,29.77,WSW,250,0.0,0.0,90,0.00,,---,0.04,VWS V14.01,2013-02-27 18:09:00,
2013-02-27 10:14:00,46.2,42.6,29.77,East,84,2.2,2.2,87,0.00,,---,0.04,VWS V14.01,2013-02-27 18:14:00,
2013-02-27 10:19:00,46.2,42.6,29.77,ESE,122,2.2,2.7,87,0.00,,---,0.04,VWS V14.01,2013-02-27 18:19:00,
2013-02-27 10:24:00,46.2,42.6,29.77,SE,136,0.0,2.2,87,0.00,,---,0.04,VWS V14.01,2013-02-27 18:24:00,
2013-02-27 10:29:00,46.2,42.6,29.77,ENE,59,0.0,0.0,87,0.00,,---,0.04,VWS V14.01,2013-02-27 18:29:00,
2013-02-27 10:34:00,46.2,42.6,29.77,SW,236,2.7,2.7,87,0.00,,---,0.04,VWS V14.01,2013-02-27 18:34:00,
2013-02-27 10:39:00,46.2,42.6,29.77,SE,127,3.1,3.1,87,0.00,,---,0.04,VWS V14.01,2013-02-27 18:39:00,
2013-02-27 10:44:00,46.2,42.6,29.77,SE,143,0.0,0.0,87,0.00,,---,0.04,VWS V14.01,2013-02-27 18:44:00,
2013-02-27 10:49:00,46.2,42.6,29.77,SE,142,0.0,3.1,87,0.00,,---,0.04,VWS V14.01,2013-02-27 18:49:00,
2013-02-27 10:54:00,46.2,42.6,29.77,SW,230,3.1,4.0,87,0.00,,---,0.04,VWS V14.01,2013-02-27 18:54:00,
2013-02-27 10:59:00,46.2,42.6,29.77,SW,220,2.7,2.7,87,0.00,,---,0.04,VWS V14.01,2013-02-27 18:59:00,
2013-02-27 11:04:00,46.2,42.6,29.80,SW,222,0.0,2.7,87,0.00,,---,0.04,VWS V14.01,2013-02-27 19:04:00,
2013-02-27 11:09:00,46.2,42.6,29.80,SSW,204,0.0,0.0,87,0.00,,---,0.04,VWS V14.01,2013-02-27 19:09:00,
2013-02-27 11:14:00,46.2,42.6,29.80,SW,221,2.7,4.0,87,0.00,,---,0.04,VWS V14.01,2013-02-27 19:14:00,
2013-02-27 11:19:00,46.2,42.6,29.80,West,273,0.0,3.1,87,0.00,,---,0.04,VWS V14.01,2013-02-27 19:19:00,
2013-02-27 11:24:00,46.2,42.6,29.80,West,273,0.0,0.0,87,0.00,,---,0.04,VWS V14.01,2013-02-27 19:24:00,
2013-02-27 11:29:00,46.2,42.6,29.80,SSW,205,2.2,3.1,87,0.00,,---,0.04,VWS V14.01,2013-02-27 19:29:00,
2013-02-27 11:34:00,46.2,42.6,29.80,WNW,302,4.9,4.9,87,0.00,,---,0.04,VWS V14.01,2013-02-27 19:34:00,
2013-02-27 11:39:00,46.2,42.6,29.80,West,280,0.0,0.0,87,0.00,,---,0.04,VWS V14.01,2013-02-27 19:39:00,
2013-02-27 11:44:00,46.2,42.6,29.80,ESE,123,3.6,3.6,87,0.00,,---,0.04,VWS V14.01,2013-02-27 19:44:00,
2013-02-27 11:49:00,48.2,40.0,29.80,South,171,0.0,2.2,73,0.00,,---,0.04,VWS V14.01,2013-02-27 19:49:00,
2013-02-27 11:54:00,48.2,40.0,29.80,East,84,0.0,0.0,73,0.00,,---,0.04,VWS V14.01,2013-02-27 19:54:00,
2013-02-27 11:59:00,48.2,40.0,29.80,West,270,3.6,3.6,73,0.00,,---,0.04,VWS V14.01,2013-02-27 19:59:00,
2013-02-27 12:04:00,48.2,40.0,29.80,West,264,3.6,4.9,73,0.00,,---,0.04,VWS V14.01,2013-02-27 20:04:00,
2013-02-27 12:09:00,48.6,39.6,29.80,SSW,210,3.6,3.6,71,0.00,,---,0.04,VWS V14.01,2013-02-27 20:09:00,
2013-02-27 12:14:00,48.6,39.6,29.80,WSW,253,0.0,2.7,71,0.00,,---,0.04,VWS V14.01,2013-02-27 20:14:00,
2013-02-27 12:19:00,48.6,39.6,29.80,East,89,0.0,0.0,71,0.00,,---,0.04,VWS V14.01,2013-02-27 20:19:00,
2013-02-27 12:24:00,48.6,39.6,29.80,ENE,78,0.0,0.0,71,0.00,,---,0.04,VWS V14.01,2013-02-27 20:24:00,
2013-02-27 12:29:00,48.6,39.6,29.80,WSW,245,0.0,2.2,71,0.00,,---,0.04,VWS V14.01,2013-02-27 20:29:00,
2013-02-27 12:34:00,48.6,39.6,29.80,ENE,71,3.1,3.1,71,0.00,,---,0.04,VWS V14.01,2013-02-27 20:34:00,
2013-02-27 12:39:00,48.6,39.6,29.80,ENE,74,3.1,3.1,71,0.00,,---,0.04,VWS V14.01,2013-02-27 20:39:00,
2013-02-27 12:44:00,49.5,39.7,29.80,South,189,0.0,0.0,69,0.00,,---,0.04,VWS V14.01,2013-02-27 20:44:00,
2013-02-27 12:49:00,49.5,39.7,29.80,NW,304,2.7,2.7,69,0.00,,---,0.04,VWS V14.01,2013-02-27 20:49:00,
2013-02-27 12:54:00,49.1,39.4,29.80,SSW,199,0.0,0.0,69,0.00,,---,0.04,VWS V14.01,2013-02-27 20:54:00,
2013-02-27 12:59:00,49.3,39.5,29.80,SE,136,0.0,0.0,69,0.00,,---,0.04,VWS V14.01,2013-02-27 20:59:00,
2013-02-27 13:04:00,49.3,39.2,29.80,SE,136,0.0,0.0,68,0.00,,---,0.04,VWS V14.01,2013-02-27 21:04:00,
2013-02-27 13:09:00,49.3,39.2,29.80,SSW,213,0.0,0.0,68,0.00,,---,0.04,VWS V14.01,2013-02-27 21:09:00,
2013-02-27 13:14:00,49.1,39.0,29.80,NE,40,0.0,2.7,68,0.00,,---,0.04,VWS V14.01,2013-02-27 21:14:00,
2013-02-27 13:19:00,49.1,39.0,29.80,East,86,2.2,3.6,68,0.00,,---,0.04,VWS V14.01,2013-02-27 21:19:00,
2013-02-27 13:24:00,49.1,39.4,29.80,East,83,2.2,2.7,69,0.00,,---,0.04,VWS V14.01,2013-02-27 21:24:00,
2013-02-27 13:29:00,49.1,39.4,29.80,SE,134,3.1,3.1,69,0.00,,---,0.04,VWS V14.01,2013-02-27 21:29:00,
2013-02-27 13:34:00,49.3,39.5,29.77,ESE,112,3.6,3.6,69,0.00,,---,0.04,VWS V14.01,2013-02-27 21:34:00,
2013-02-27 13:39:00,49.3,39.5,29.77,ESE,123,0.0,0.0,69,0.00,,---,0.04,VWS V14.01,2013-02-27 21:39:00,
2013-02-27 13:44:00,49.5,39.7,29.77,ENE,70,2.7,2.7,69,0.00,,---,0.04,VWS V14.01,2013-02-27 21:44:00,
2013-02-27 13:49:00,49.6,40.3,29.77,East,99,0.0,0.0,70,0.00,,---,0.04,VWS V14.01,2013-02-27 21:49:00,
2013-02-27 13:54:00,49.8,40.4,29.77,SSE,162,2.2,2.2,70,0.00,,---,0.04,VWS V14.01,2013-02-27 21:54:00,
2013-02-27 13:59:00,49.6,40.3,29.77,North,357,2.2,2.2,70,0.00,,---,0.04,VWS V14.01,2013-02-27 21:59:00,
2013-02-27 14:04:00,49.6,40.3,29.77,ENE,77,0.0,0.0,70,0.00,,---,0.04,VWS V14.01,2013-02-27 22:04:00,
2013-02-27 14:09:00,49.8,40.4,29.77,East,93,0.0,0.0,70,0.00,,---,0.04,VWS V14.01,2013-02-27 22:09:00,
2013-02-27 14:14:00,50.0,40.2,29.77,ESE,119,0.0,0.0,69,0.00,,---,0.04,VWS V14.01,2013-02-27 22:14:00,
2013-02-27 14:19:00,50.2,40.8,29.77,South,169,0.0,2.2,70,0.00,,---,0.04,VWS V14.01,2013-02-27 22:19:00,
2013-02-27 14:24:00,50.2,40.4,29.77,ENE,59,4.5,4.5,69,0.00,,---,0.04,VWS V14.01,2013-02-27 22:24:00,
2013-02-27 14:29:00,50.0,39.9,29.77,SSE,161,4.0,4.0,68,0.00,,---,0.04,VWS V14.01,2013-02-27 22:29:00,
2013-02-27 14:34:00,49.8,39.7,29.77,ENE,77,0.0,0.0,68,0.00,,---,0.04,VWS V14.01,2013-02-27 22:34:00,
2013-02-27 14:39:00,49.8,39.7,29.77,SE,140,2.2,2.2,68,0.00,,---,0.04,VWS V14.01,2013-02-27 22:39:00,
2013-02-27 14:44:00,49.8,39.7,29.77,ENE,72,0.0,0.0,68,0.00,,---,0.04,VWS V14.01,2013-02-27 22:44:00,
2013-02-27 14:49:00,49.8,39.7,29.77,SE,140,0.0,0.0,68,0.00,,---,0.04,VWS V14.01,2013-02-27 22:49:00,
2013-02-27 14:54:00,49.6,39.2,29.77,SE,140,0.0,0.0,67,0.00,,---,0.04,VWS V14.01,2013-02-27 22:54:00,
2013-02-27 14:59:00,49.6,39.2,29.77,ENE,73,0.0,0.0,67,0.00,,---,0.04,VWS V14.01,2013-02-27 22:59:00,
2013-02-27 15:04:00,49.8,39.7,29.77,ENE,73,0.0,0.0,68,0.00,,---,0.04,VWS V14.01,2013-02-27 23:04:00,
2013-02-27 15:09:00,49.6,39.9,29.77,ENE,73,0.0,0.0,69,0.00,,---,0.04,VWS V14.01,2013-02-27 23:09:00,
2013-02-27 15:14:00,49.6,39.9,29.77,ENE,73,0.0,0.0,69,0.00,,---,0.04,VWS V14.01,2013-02-27 23:14:00,
2013-02-27 15:19:00,49.5,39.7,29.77,ENE,73,0.0,0.0,69,0.00,,---,0.04,VWS V14.01,2013-02-27 23:19:00,
2013-02-27 15:24:00,49.6,40.3,29.77,ENE,73,0.0,0.0,70,0.00,,---,0.04,VWS V14.01,2013-02-27 23:24:00,
2013-02-27 15:29:00,49.6,40.3,29.77,East,79,0.0,0.0,70,0.00,,---,0.04,VWS V14.01,2013-02-27 23:29:00,
2013-02-27 15:34:00,49.6,40.3,29.77,East,79,0.0,0.0,70,0.00,,---,0.04,VWS V14.01,2013-02-27 23:34:00,
2013-02-27 15:39:00,49.3,39.5,29.77,East,79,0.0,0.0,69,0.00,,---,0.04,VWS V14.01,2013-02-27 23:39:00,
2013-02-27 15:44:00,49.5,40.1,29.77,East,79,0.0,0.0,70,0.00,,---,0.04,VWS V14.01,2013-02-27 23:44:00,
2013-02-27 15:49:00,49.1,39.8,29.77,East,79,0.0,0.0,70,0.00,,---,0.04,VWS V14.01,2013-02-27 23:49:00,
2013-02-27 15:54:00,48.7,39.8,29.77,SW,230,2.2,2.7,71,0.00,,---,0.04,VWS V14.01,2013-02-27 23:54:00,
2013-02-27 15:59:00,48.7,40.5,29.77,SW,230,0.0,0.0,73,0.00,,---,0.04,VWS V14.01,2013-02-27 23:59:00,
2013-02-27 16:04:00,48.7,40.8,29.77,SW,230,0.0,0.0,74,0.00,,---,0.04,VWS V14.01,2013-02-28 00:04:00,
2013-02-27 16:09:00,48.6,41.0,29.77,SW,230,0.0,0.0,75,0.00,,---,0.04,VWS V14.01,2013-02-28 00:09:00,
2013-02-27 16:14:00,48.2,41.0,29.77,SW,230,0.0,0.0,76,0.00,,---,0.04,VWS V14.01,2013-02-28 00:14:00,
2013-02-27 16:19:00,48.0,41.5,29.77,SW,230,0.0,0.0,78,0.00,,---,0.04,VWS V14.01,2013-02-28 00:19:00,
2013-02-27 16:24:00,48.0,41.8,29.77,SW,230,0.0,0.0,79,0.00,,---,0.04,VWS V14.01,2013-02-28 00:24:00,
2013-02-27 16:29:00,48.0,42.2,29.77,SW,230,0.0,0.0,80,0.00,,---,0.04,VWS V14.01,2013-02-28 00:29:00,
2013-02-27 16:34:00,48.0,42.5,29.77,SW,230,0.0,0.0,81,0.00,,---,0.04,VWS V14.01,2013-02-28 00:34:00,
2013-02-27 16:39:00,48.0,42.5,29.77,SW,230,0.0,0.0,81,0.00,,---,0.04,VWS V14.01,2013-02-28 00:39:00,
2013-02-27 16:44:00,47.8,42.3,29.77,SW,230,0.0,0.0,81,0.00,,---,0.04,VWS V14.01,2013-02-28 00:44:00,
2013-02-27 16:49:00,47.8,42.3,29.77,SW,230,0.0,0.0,81,0.00,,---,0.04,VWS V14.01,2013-02-28 00:49:00,
2013-02-27 16:54:00,47.8,42.3,29.77,SW,230,0.0,0.0,81,0.00,,---,0.04,VWS V14.01,2013-02-28 00:54:00,
2013-02-27 16:59:00,47.7,42.4,29.77,SW,230,0.0,0.0,82,0.00,,---,0.04,VWS V14.01,2013-02-28 00:59:00,
2013-02-27 17:04:00,47.8,42.6,29.74,SW,230,0.0,0.0,82,0.00,,---,0.04,VWS V14.01,2013-02-28 01:04:00,
2013-02-27 17:09:00,47.7,42.4,29.74,SW,230,0.0,0.0,82,0.00,,---,0.00,VWS V14.01,2013-02-28 01:09:00,
2013-02-27 17:14:00,47.7,42.4,29.74,South,179,0.0,0.0,82,0.00,,---,0.04,VWS V14.01,2013-02-28 01:14:00,
2013-02-27 17:19:00,47.5,42.3,29.77,ESE,108,0.0,0.0,82,0.00,,---,0.04,VWS V14.01,2013-02-28 01:19:00,
2013-02-27 17:24:00,47.1,41.9,29.77,ESE,108,0.0,0.0,82,0.00,,---,0.04,VWS V14.01,2013-02-28 01:24:00,
2013-02-27 17:29:00,46.9,42.0,29.77,ESE,108,0.0,0.0,83,0.00,,---,0.04,VWS V14.01,2013-02-28 01:29:00,
2013-02-27 17:34:00,46.8,42.2,29.77,ESE,108,0.0,0.0,84,0.04,,---,0.08,VWS V14.01,2013-02-28 01:34:00,
2013-02-27 17:39:00,46.6,42.3,29.77,ESE,108,0.0,0.0,85,0.04,,---,0.08,VWS V14.01,2013-02-28 01:39:00,
2013-02-27 17:44:00,46.4,42.1,29.77,ESE,108,0.0,0.0,85,0.04,,---,0.08,VWS V14.01,2013-02-28 01:44:00,
2013-02-27 17:49:00,46.2,42.3,29.77,ESE,108,0.0,0.0,86,0.04,,---,0.08,VWS V14.01,2013-02-28 01:49:00,
2013-02-27 17:54:00,46.2,42.6,29.77,ESE,108,0.0,0.0,87,0.04,,---,0.08,VWS V14.01,2013-02-28 01:54:00,
2013-02-27 17:59:00,46.2,42.6,29.77,ESE,108,0.0,0.0,87,0.04,,---,0.08,VWS V14.01,2013-02-28 01:59:00,
2013-02-27 18:04:00,46.0,42.7,29.77,ESE,108,0.0,0.0,88,0.04,,---,0.08,VWS V14.01,2013-02-28 02:04:00,
2013-02-27 18:09:00,46.0,43.0,29.77,ESE,108,0.0,0.0,89,0.04,,---,0.08,VWS V14.01,2013-02-28 02:09:00,
2013-02-27 18:14:00,45.9,42.8,29.77,ESE,111,0.0,0.0,89,0.04,,---,0.08,VWS V14.01,2013-02-28 02:14:00,
2013-02-27 18:19:00,45.9,43.1,29.77,WSW,254,0.0,0.0,90,0.04,,---,0.08,VWS V14.01,2013-02-28 02:19:00,
2013-02-27 18:24:00,45.9,43.1,29.77,WSW,254,0.0,0.0,90,0.08,,---,0.12,VWS V14.01,2013-02-28 02:24:00,
2013-02-27 18:29:00,46.0,43.3,29.77,WSW,254,0.0,0.0,90,0.12,,---,0.16,VWS V14.01,2013-02-28 02:29:00,
2013-02-27 18:34:00,46.0,43.3,29.77,ENE,75,2.7,2.7,90,0.08,,---,0.16,VWS V14.01,2013-02-28 02:34:00,
2013-02-27 18:39:00,46.0,43.3,29.77,ENE,75,0.0,0.0,90,0.08,,---,0.16,VWS V14.01,2013-02-28 02:39:00,
2013-02-27 18:44:00,45.9,43.1,29.77,ENE,75,0.0,0.0,90,0.08,,---,0.16,VWS V14.01,2013-02-28 02:44:00,
2013-02-27 18:49:00,45.9,43.1,29.77,ENE,75,0.0,0.0,90,0.08,,---,0.16,VWS V14.01,2013-02-28 02:49:00,
2013-02-27 18:54:00,45.7,43.2,29.77,ENE,75,0.0,0.0,91,0.12,,---,0.20,VWS V14.01,2013-02-28 02:54:00,
2013-02-27 18:59:00,45.5,43.0,29.77,North,1,0.0,0.0,91,0.12,,---,0.20,VWS V14.01,2013-02-28 02:59:00,
2013-02-27 19:04:00,45.3,42.8,29.77,North,1,0.0,0.0,91,0.12,,---,0.20,VWS V14.01,2013-02-28 03:04:00,
2013-02-27 19:09:00,45.1,43.0,29.77,North,1,0.0,0.0,92,0.12,,---,0.20,VWS V14.01,2013-02-28 03:09:00,
2013-02-27 19:14:00,45.1,43.0,29.77,North,1,0.0,0.0,92,0.12,,---,0.20,VWS V14.01,2013-02-28 03:14:00,
2013-02-27 19:19:00,45.1,43.0,29.77,North,1,0.0,0.0,92,0.12,,---,0.20,VWS V14.01,2013-02-28 03:19:00,
2013-02-27 19:24:00,45.0,43.1,29.77,North,1,0.0,0.0,93,0.08,,---,0.20,VWS V14.01,2013-02-28 03:24:00,
2013-02-27 19:29:00,44.8,42.9,29.77,North,1,0.0,0.0,93,0.04,,---,0.20,VWS V14.01,2013-02-28 03:29:00,
2013-02-27 19:34:00,45.0,43.1,29.80,North,1,0.0,0.0,93,0.08,,---,0.24,VWS V14.01,2013-02-28 03:34:00,
2013-02-27 19:39:00,45.0,43.1,29.80,North,1,0.0,0.0,93,0.08,,---,0.24,VWS V14.01,2013-02-28 03:39:00,
2013-02-27 19:44:00,45.1,43.2,29.80,North,1,0.0,0.0,93,0.08,,---,0.24,VWS V14.01,2013-02-28 03:44:00,
2013-02-27 19:49:00,45.1,43.2,29.80,North,1,0.0,0.0,93,0.08,,---,0.24,VWS V14.01,2013-02-28 03:49:00,
2013-02-27 19:54:00,45.1,43.2,29.80,North,1,0.0,0.0,93,0.04,,---,0.24,VWS V14.01,2013-02-28 03:54:00,
2013-02-27 19:59:00,45.0,43.1,29.80,North,1,0.0,0.0,93,0.08,,---,0.28,VWS V14.01,2013-02-28 03:59:00,
2013-02-27 20:04:00,45.1,43.2,29.77,North,1,0.0,0.0,93,0.08,,---,0.28,VWS V14.01,2013-02-28 04:04:00,
2013-02-27 20:09:00,45.0,43.1,29.77,North,1,0.0,0.0,93,0.08,,---,0.28,VWS V14.01,2013-02-28 04:09:00,
2013-02-27 20:14:00,44.8,42.9,29.77,North,1,0.0,0.0,93,0.08,,---,0.28,VWS V14.01,2013-02-28 04:14:00,
2013-02-27 20:19:00,44.8,42.9,29.77,North,1,0.0,0.0,93,0.08,,---,0.28,VWS V14.01,2013-02-28 04:19:00,
2013-02-27 20:24:00,44.8,42.9,29.77,East,86,3.1,3.1,93,0.08,,---,0.28,VWS V14.01,2013-02-28 04:24:00,
2013-02-27 20:29:00,44.8,42.9,29.77,East,87,0.0,0.0,93,0.08,,---,0.28,VWS V14.01,2013-02-28 04:29:00,
2013-02-27 20:34:00,44.8,42.9,29.77,South,177,0.0,0.0,93,0.04,,---,0.28,VWS V14.01,2013-02-28 04:34:00,
2013-02-27 20:39:00,44.6,43.0,29.77,South,177,0.0,0.0,94,0.04,,---,0.28,VWS V14.01,2013-02-28 04:39:00,
2013-02-27 20:44:00,44.6,43.0,29.77,South,177,0.0,0.0,94,0.04,,---,0.28,VWS V14.01,2013-02-28 04:44:00,
2013-02-27 20:49:00,44.4,42.8,29.77,South,177,0.0,0.0,94,0.04,,---,0.28,VWS V14.01,2013-02-28 04:49:00,
2013-02-27 20:54:00,44.4,43.1,29.77,South,178,0.0,0.0,95,0.04,,---,0.28,VWS V14.01,2013-02-28 04:54:00,
2013-02-27 20:59:00,44.4,43.1,29.77,South,177,0.0,0.0,95,0.00,,---,0.28,VWS V14.01,2013-02-28 04:59:00,
2013-02-27 21:00:00,44.2,42.9,29.77,South,177,0.0,0.0,95,0.00,,---,0.28,VWS V14.01,2013-02-28 05:00:00,
2013-02-27 21:05:00,44.6,43.0,29.80,South,177,0.0,0.0,94,0.04,,---,0.31,VWS V14.01,2013-02-28 05:05:00,
2013-02-27 21:10:00,44.6,43.0,29.80,South,177,0.0,0.0,94,0.04,,---,0.31,VWS V14.01,2013-02-28 05:10:00,
2013-02-27 21:15:00,44.6,43.0,29.80,South,178,0.0,0.0,94,0.04,,---,0.31,VWS V14.01,2013-02-28 05:15:00,
2013-02-27 21:20:00,44.2,42.9,29.77,South,177,0.0,0.0,95,0.04,,---,0.31,VWS V14.01,2013-02-28 05:20:00,
2013-02-27 21:25:00,44.2,42.9,29.77,South,177,0.0,0.0,95,0.04,,---,0.31,VWS V14.01,2013-02-28 05:25:00,
2013-02-27 21:30:00,44.2,42.9,29.77,South,177,0.0,0.0,95,0.04,,---,0.31,VWS V14.01,2013-02-28 05:30:00,
2013-02-27 21:35:00,44.2,42.9,29.77,South,177,0.0,0.0,95,0.04,,---,0.31,VWS V14.01,2013-02-28 05:35:00,
2013-02-27 21:40:00,44.2,42.9,29.77,South,177,0.0,0.0,95,0.04,,---,0.31,VWS V14.01,2013-02-28 05:40:00,
2013-02-27 21:45:00,44.4,43.1,29.77,South,177,0.0,0.0,95,0.04,,---,0.31,VWS V14.01,2013-02-28 05:45:00,
2013-02-27 21:50:00,44.4,43.1,29.77,South,178,0.0,0.0,95,0.04,,---,0.31,VWS V14.01,2013-02-28 05:50:00,
2013-02-27 21:55:00,44.4,43.1,29.77,South,177,0.0,0.0,95,0.04,,---,0.31,VWS V14.01,2013-02-28 05:55:00,
2013-02-27 22:00:00,44.2,42.9,29.77,ENE,73,0.0,0.0,95,0.04,,---,0.31,VWS V14.01,2013-02-28 06:00:00,
2013-02-27 22:05:00,44.2,42.9,29.77,ENE,73,0.0,0.0,95,0.00,,---,0.31,VWS V14.01,2013-02-28 06:05:00,
2013-02-27 22:10:00,44.1,42.7,29.77,ENE,73,0.0,0.0,95,0.00,,---,0.31,VWS V14.01,2013-02-28 06:10:00,
2013-02-27 22:15:00,44.1,42.7,29.77,ENE,73,0.0,0.0,95,0.00,,---,0.31,VWS V14.01,2013-02-28 06:15:00,
2013-02-27 22:20:00,44.1,42.7,29.80,ENE,73,0.0,0.0,95,0.00,,---,0.31,VWS V14.01,2013-02-28 06:20:00,
2013-02-27 22:25:00,44.1,42.7,29.80,ENE,73,0.0,0.0,95,0.00,,---,0.31,VWS V14.01,2013-02-28 06:25:00,
2013-02-27 22:30:00,44.1,42.7,29.80,ENE,73,0.0,0.0,95,0.00,,---,0.31,VWS V14.01,2013-02-28 06:30:00,
2013-02-27 22:35:00,44.1,42.7,29.80,ENE,73,0.0,0.0,95,0.00,,---,0.31,VWS V14.01,2013-02-28 06:35:00,
2013-02-27 22:40:00,43.9,42.5,29.80,ENE,74,0.0,0.0,95,0.00,,---,0.31,VWS V14.01,2013-02-28 06:40:00,
2013-02-27 22:45:00,43.9,42.5,29.80,ENE,74,0.0,0.0,95,0.00,,---,0.31,VWS V14.01,2013-02-28 06:45:00,
2013-02-27 22:50:00,43.7,42.4,29.77,East,100,2.7,2.7,95,0.00,,---,0.31,VWS V14.01,2013-02-28 06:50:00,
2013-02-27 22:55:00,43.9,42.5,29.77,ESE,107,2.7,2.7,95,0.00,,---,0.31,VWS V14.01,2013-02-28 06:55:00,
2013-02-27 23:00:00,43.9,42.5,29.77,SSE,160,0.0,0.0,95,0.00,,---,0.31,VWS V14.01,2013-02-28 07:00:00,
2013-02-27 23:05:00,43.7,42.4,29.77,SSE,160,0.0,0.0,95,0.00,,---,0.31,VWS V14.01,2013-02-28 07:05:00,
2013-02-27 23:10:00,43.5,42.2,29.77,SSE,160,0.0,0.0,95,0.00,,---,0.31,VWS V14.01,2013-02-28 07:10:00,
2013-02-27 23:15:00,43.5,42.2,29.77,SSE,160,0.0,0.0,95,0.00,,---,0.31,VWS V14.01,2013-02-28 07:15:00,
2013-02-27 23:20:00,43.5,42.2,29.77,SSE,160,0.0,0.0,95,0.08,,---,0.39,VWS V14.01,2013-02-28 07:20:00,
2013-02-27 23:25:00,43.5,42.2,29.77,SSE,160,0.0,0.0,95,0.08,,---,0.39,VWS V14.01,2013-02-28 07:25:00,
2013-02-27 23:30:00,43.5,42.2,29.77,SSE,160,0.0,0.0,95,0.08,,---,0.39,VWS V14.01,2013-02-28 07:30:00,
2013-02-27 23:35:00,43.3,42.0,29.77,SSE,160,0.0,0.0,95,0.08,,---,0.39,VWS V14.01,2013-02-28 07:35:00,
2013-02-27 23:40:00,43.3,42.0,29.77,SSE,160,0.0,0.0,95,0.08,,---,0.39,VWS V14.01,2013-02-28 07:40:00,
2013-02-27 23:45:00,43.2,41.8,29.77,SSE,160,0.0,0.0,95,0.08,,---,0.39,VWS V14.01,2013-02-28 07:45:00,
2013-02-27 23:50:00,43.3,42.0,29.77,SSE,160,0.0,0.0,95,0.08,,---,0.39,VWS V14.01,2013-02-28 07:50:00,
2013-02-27 23:55:00,43.2,41.8,29.77,SSE,160,0.0,0.0,95,0.08,,---,0.39,VWS V14.01,2013-02-28 07:55:00,